createdAt,value
2023-01-30T00:01:19.941Z,16.90
2023-01-30T00:03:47.723Z,17.23
2023-01-30T00:06:16.302Z,17.07
2023-01-30T00:08:43.906Z,18.30
2023-01-30T00:11:14.524Z,16.10
2023-01-30T00:13:43.809Z,17.47
2023-01-30T00:16:12.521Z,16.40
2023-01-30T00:18:41.962Z,16.67
2023-01-30T00:21:14.304Z,17.73
2023-01-30T00:23:42.627Z,18.23
2023-01-30T00:26:11.962Z,16.70
2023-01-30T00:28:40.184Z,15.27
2023-01-30T00:31:08.643Z,15.40
2023-01-30T00:33:38.875Z,15.60
2023-01-30T00:36:07.327Z,15.23
2023-01-30T00:38:34.731Z,15.23
2023-01-30T00:41:02.715Z,15.00
2023-01-30T00:43:48.863Z,14.03
2023-01-30T00:46:48.580Z,14.60
2023-01-30T00:49:16.438Z,14.40
2023-01-30T00:51:44.490Z,14.27
2023-01-30T00:54:11.975Z,13.27
2023-01-30T00:56:39.595Z,14.37
2023-01-30T00:59:06.891Z,13.90
2023-01-30T01:01:34.640Z,14.23
2023-01-30T01:04:02.051Z,14.40
2023-01-30T01:06:30.455Z,14.23
2023-01-30T01:08:57.836Z,13.13
2023-01-30T01:11:25.665Z,13.37
2023-01-30T01:13:56.534Z,13.80
2023-01-30T01:16:26.825Z,14.37
2023-01-30T01:18:54.929Z,14.20
2023-01-30T01:21:23.423Z,14.17
2023-01-30T01:23:53.684Z,13.97
2023-01-30T01:26:22.040Z,13.23
2023-01-30T01:28:49.521Z,14.93
2023-01-30T01:31:17.863Z,15.60
2023-01-30T01:33:45.350Z,14.70
2023-01-30T01:36:20.058Z,13.77
2023-01-30T01:38:58.305Z,15.00
2023-01-30T01:41:25.912Z,13.60
2023-01-30T01:44:11.325Z,14.23
2023-01-30T01:47:00.148Z,13.33
2023-01-30T01:49:34.022Z,13.93
2023-01-30T01:52:13.351Z,12.63
2023-01-30T01:54:59.797Z,13.87
2023-01-30T01:57:39.003Z,14.33
2023-01-30T02:00:15.543Z,13.57
2023-01-30T02:03:14.946Z,13.83
2023-01-30T02:05:48.644Z,12.03
2023-01-30T02:08:29.389Z,13.47
2023-01-30T02:11:10.202Z,13.07
2023-01-30T02:13:38.629Z,12.97
2023-01-30T02:16:08.379Z,14.07
2023-01-30T02:18:41.853Z,13.80
2023-01-30T02:21:40.336Z,12.57
2023-01-30T02:24:51.859Z,12.93
2023-01-30T02:27:45.374Z,12.73
2023-01-30T02:30:21.661Z,13.17
2023-01-30T02:33:17.922Z,13.33
2023-01-30T02:36:21.433Z,12.73
2023-01-30T02:39:34.928Z,12.07
2023-01-30T02:42:25.647Z,13.17
2023-01-30T02:45:29.383Z,12.80
2023-01-30T02:48:05.438Z,12.97
2023-01-30T02:50:40.950Z,14.20
2023-01-30T02:53:08.981Z,12.90
2023-01-30T02:55:36.516Z,13.20
2023-01-30T02:58:05.057Z,12.60
2023-01-30T03:01:03.929Z,12.77
2023-01-30T03:04:01.661Z,12.90
2023-01-30T03:07:07.781Z,12.93
2023-01-30T03:09:54.502Z,13.27
2023-01-30T03:12:46.494Z,12.90
2023-01-30T03:15:31.199Z,12.07
2023-01-30T03:17:59.750Z,12.17
2023-01-30T03:20:27.365Z,11.97
2023-01-30T03:22:55.670Z,12.53
2023-01-30T03:25:27.064Z,12.10
2023-01-30T03:27:56.787Z,11.40
2023-01-30T03:30:26.716Z,12.00
2023-01-30T03:32:54.258Z,11.97
2023-01-30T03:35:21.939Z,12.00
2023-01-30T03:37:49.809Z,11.80
2023-01-30T03:40:18.019Z,11.33
2023-01-30T03:42:45.909Z,11.50
2023-01-30T03:45:13.576Z,12.40
2023-01-30T03:47:40.885Z,10.17
2023-01-30T03:50:09.701Z,11.67
2023-01-30T03:52:37.946Z,11.20
2023-01-30T03:55:06.172Z,11.00
2023-01-30T03:57:33.525Z,10.70
2023-01-30T04:00:01.217Z,11.57
2023-01-30T04:02:28.568Z,12.10
2023-01-30T04:04:56.347Z,12.47
2023-01-30T04:07:23.926Z,12.07
2023-01-30T04:09:51.559Z,11.33
2023-01-30T04:12:18.984Z,11.50
2023-01-30T04:14:46.645Z,11.53
2023-01-30T04:17:14.047Z,11.83
2023-01-30T04:19:41.660Z,11.47
2023-01-30T04:22:08.942Z,10.83
2023-01-30T04:24:36.465Z,11.63
2023-01-30T04:27:03.922Z,12.17
2023-01-30T04:29:31.691Z,11.23
2023-01-30T04:31:58.995Z,11.30
2023-01-30T04:34:26.537Z,12.27
2023-01-30T04:36:53.866Z,12.00
2023-01-30T04:39:22.191Z,11.80
2023-01-30T04:41:49.618Z,12.43
2023-01-30T04:44:17.286Z,12.37
2023-01-30T04:46:44.702Z,13.00
2023-01-30T04:49:12.787Z,11.63
2023-01-30T04:51:40.086Z,12.53
2023-01-30T04:54:07.801Z,12.53
2023-01-30T04:56:35.147Z,13.63
2023-01-30T04:59:02.859Z,13.47
2023-01-30T05:01:42.295Z,12.67
2023-01-30T05:04:10.283Z,13.07
2023-01-30T05:06:37.728Z,13.60
2023-01-30T05:09:06.109Z,13.37
2023-01-30T05:11:34.078Z,12.83
2023-01-30T05:14:02.219Z,12.43
2023-01-30T05:16:29.908Z,12.93
2023-01-30T05:18:57.695Z,12.47
2023-01-30T05:21:30.765Z,12.70
2023-01-30T05:23:58.576Z,11.97
2023-01-30T05:26:27.111Z,13.07
2023-01-30T05:28:57.219Z,11.70
2023-01-30T05:31:25.631Z,12.17
2023-01-30T05:33:53.616Z,12.13
2023-01-30T05:36:23.566Z,12.07
2023-01-30T05:38:51.325Z,13.20
2023-01-30T05:41:19.043Z,12.67
2023-01-30T05:43:51.102Z,13.17
2023-01-30T05:46:18.885Z,13.07
2023-01-30T05:48:46.811Z,12.67
2023-01-30T05:51:32.273Z,13.27
2023-01-30T05:54:00.443Z,11.10
2023-01-30T05:56:27.829Z,14.87
2023-01-30T05:58:57.005Z,15.53
2023-01-30T06:01:24.648Z,13.33
2023-01-30T06:03:53.253Z,12.67
2023-01-30T06:06:21.838Z,14.10
2023-01-30T06:08:54.566Z,13.27
2023-01-30T06:11:22.978Z,13.70
2023-01-30T06:13:50.741Z,12.93
2023-01-30T06:16:19.537Z,13.40
2023-01-30T06:18:47.578Z,13.83
2023-01-30T06:21:16.441Z,14.30
2023-01-30T06:23:44.330Z,13.33
2023-01-30T06:26:11.757Z,13.67
2023-01-30T06:28:39.375Z,13.70
2023-01-30T06:31:08.332Z,14.00
2023-01-30T06:33:36.424Z,13.77
2023-01-30T06:36:04.072Z,13.97
2023-01-30T06:38:31.681Z,14.20
2023-01-30T06:40:59.211Z,15.40
2023-01-30T06:43:26.780Z,14.60
2023-01-30T06:45:54.095Z,14.73
2023-01-30T06:48:21.718Z,15.00
2023-01-30T06:50:49.051Z,14.37
2023-01-30T06:53:16.696Z,14.50
2023-01-30T06:55:43.999Z,14.93
2023-01-30T06:58:15.020Z,13.13
2023-01-30T07:00:43.375Z,13.97
2023-01-30T07:03:17.189Z,13.70
2023-01-30T07:05:47.572Z,14.37
2023-01-30T07:08:16.655Z,14.67
2023-01-30T07:10:45.497Z,14.60
2023-01-30T07:13:13.768Z,13.50
2023-01-30T07:15:41.114Z,13.83
2023-01-30T07:18:08.899Z,14.53
2023-01-30T07:20:36.259Z,14.20
2023-01-30T07:23:04.324Z,14.30
2023-01-30T07:25:31.673Z,14.37
2023-01-30T07:28:03.309Z,14.03
2023-01-30T07:30:36.140Z,14.67
2023-01-30T07:33:06.629Z,13.83
2023-01-30T07:35:36.890Z,14.67
2023-01-30T07:38:05.756Z,13.93
2023-01-30T07:40:33.519Z,15.50
2023-01-30T07:43:12.117Z,14.60
2023-01-30T07:45:49.067Z,14.70
2023-01-30T07:48:19.644Z,15.87
2023-01-30T07:50:47.452Z,13.90
2023-01-30T07:53:18.910Z,14.40
2023-01-30T07:55:46.448Z,15.73
2023-01-30T07:58:17.992Z,16.07
2023-01-30T08:00:45.771Z,14.47
2023-01-30T08:03:15.902Z,14.47
2023-01-30T08:05:47.054Z,13.77
2023-01-30T08:08:15.156Z,13.37
2023-01-30T08:10:42.925Z,14.33
2023-01-30T08:13:10.821Z,14.07
2023-01-30T08:15:38.242Z,13.67
2023-01-30T08:18:07.489Z,13.17
2023-01-30T08:20:35.053Z,13.83
2023-01-30T08:23:03.350Z,12.33
2023-01-30T08:25:31.158Z,13.37
2023-01-30T08:28:00.633Z,13.33
2023-01-30T08:30:30.683Z,12.23
2023-01-30T08:32:59.193Z,12.87
2023-01-30T08:35:26.991Z,13.10
2023-01-30T08:37:54.837Z,12.63
2023-01-30T08:40:22.171Z,13.60
2023-01-30T08:42:49.797Z,12.20
2023-01-30T08:45:17.172Z,13.90
2023-01-30T08:47:44.736Z,13.43
2023-01-30T08:50:12.366Z,14.07
2023-01-30T08:52:39.989Z,13.43
2023-01-30T08:55:08.042Z,14.30
2023-01-30T08:57:36.603Z,14.50
2023-01-30T09:00:05.804Z,12.87
2023-01-30T09:02:35.263Z,13.67
2023-01-30T09:05:04.163Z,15.70
2023-01-30T09:07:33.628Z,13.23
2023-01-30T09:10:01.929Z,13.27
2023-01-30T09:12:29.513Z,15.30
2023-01-30T09:14:58.588Z,13.50
2023-01-30T09:17:26.567Z,13.63
2023-01-30T09:19:54.200Z,14.50
2023-01-30T09:22:21.912Z,14.13
2023-01-30T09:24:49.251Z,15.83
2023-01-30T09:27:16.804Z,14.63
2023-01-30T09:29:45.410Z,14.73
2023-01-30T09:32:13.027Z,15.63
2023-01-30T09:34:40.528Z,14.30
2023-01-30T09:37:08.396Z,16.13
2023-01-30T09:39:35.748Z,13.87
2023-01-30T09:42:07.152Z,14.57
2023-01-30T09:45:21.584Z,16.37
2023-01-30T09:48:18.473Z,14.83
2023-01-30T09:51:02.607Z,14.77
2023-01-30T09:53:36.304Z,15.03
2023-01-30T09:56:06.387Z,14.20
2023-01-30T09:59:03.347Z,14.10
2023-01-30T10:02:09.315Z,13.77
2023-01-30T10:05:00.112Z,14.33
2023-01-30T10:07:34.098Z,15.30
2023-01-30T10:10:28.623Z,15.93
2023-01-30T10:13:13.673Z,16.93
2023-01-30T10:16:09.832Z,17.13
2023-01-30T10:19:20.561Z,17.57
2023-01-30T10:22:41.229Z,19.23
2023-01-30T10:25:38.779Z,16.03
2023-01-30T10:28:37.606Z,17.53
2023-01-30T10:31:15.734Z,17.10
2023-01-30T10:34:06.580Z,17.23
2023-01-30T10:36:49.740Z,18.33
2023-01-30T10:39:55.540Z,18.87
2023-01-30T10:42:44.009Z,17.60
2023-01-30T10:45:17.535Z,17.33
2023-01-30T10:48:31.372Z,16.67
2023-01-30T10:51:33.649Z,17.70
2023-01-30T10:54:26.928Z,17.27
2023-01-30T10:57:23.923Z,15.90
2023-01-30T11:00:11.295Z,16.07
2023-01-30T11:03:05.035Z,15.80
2023-01-30T11:05:47.531Z,16.57
2023-01-30T11:08:28.918Z,17.17
2023-01-30T11:10:57.962Z,16.00
2023-01-30T11:13:34.498Z,16.23
2023-01-30T11:16:08.049Z,16.03
2023-01-30T11:19:18.698Z,15.87
2023-01-30T11:21:44.557Z,15.93
2023-01-30T11:24:31.009Z,17.47
2023-01-30T11:27:29.441Z,15.93
2023-01-30T11:30:11.165Z,16.37
2023-01-30T11:32:38.671Z,16.23
2023-01-30T11:35:09.342Z,16.47
2023-01-30T11:37:41.359Z,15.87
2023-01-30T11:40:31.277Z,16.87
2023-01-30T11:43:14.260Z,16.40
2023-01-30T11:45:50.514Z,16.27
2023-01-30T11:48:32.955Z,15.90
2023-01-30T11:51:16.956Z,15.17
2023-01-30T11:54:01.225Z,15.90
2023-01-30T11:56:54.528Z,15.00
2023-01-30T11:59:37.157Z,15.27
2023-01-30T12:02:29.968Z,15.03
2023-01-30T12:05:05.463Z,16.17
2023-01-30T12:07:37.611Z,14.40
2023-01-30T12:10:31.652Z,14.93
2023-01-30T12:13:20.155Z,14.13
2023-01-30T12:15:58.265Z,14.87
2023-01-30T12:18:50.941Z,15.17
2023-01-30T12:21:36.329Z,15.23
2023-01-30T12:24:25.909Z,16.33
2023-01-30T12:27:10.039Z,17.00
2023-01-30T12:30:11.320Z,16.97
2023-01-30T12:32:38.975Z,16.73
2023-01-30T12:35:18.562Z,18.77
2023-01-30T12:38:05.597Z,17.83
2023-01-30T12:41:16.572Z,17.93
2023-01-30T12:48:22.862Z,18.07
2023-01-30T12:51:21.248Z,18.57
2023-01-30T12:54:21.307Z,18.57
2023-01-30T12:57:10.413Z,17.73
2023-01-30T12:59:47.071Z,17.23
2023-01-30T13:03:12.917Z,18.13
2023-01-30T13:05:54.447Z,17.53
2023-01-30T13:08:43.047Z,18.53
2023-01-30T13:11:42.046Z,19.20
2023-01-30T13:14:44.734Z,18.90
2023-01-30T13:17:49.788Z,18.57
2023-01-30T13:20:53.220Z,18.90
2023-01-30T13:23:54.433Z,17.13
2023-01-30T13:26:31.369Z,17.87
2023-01-30T13:29:29.782Z,17.47
2023-01-30T13:32:02.629Z,17.93
2023-01-30T13:34:45.762Z,17.23
2023-01-30T13:37:20.764Z,16.97
2023-01-30T13:40:13.643Z,17.27
2023-01-30T13:43:02.195Z,17.20
2023-01-30T13:45:36.778Z,17.20
2023-01-30T13:48:30.922Z,15.87
2023-01-30T13:51:52.994Z,16.63
2023-01-30T13:54:50.680Z,16.00
2023-01-30T13:57:40.307Z,15.17
2023-01-30T14:00:26.896Z,15.80
2023-01-30T14:03:06.729Z,13.57
2023-01-30T14:05:52.795Z,13.00
2023-01-30T14:08:38.171Z,14.10
2023-01-30T14:11:37.303Z,13.60
2023-01-30T14:14:32.363Z,14.45
2023-01-30T14:17:16.721Z,14.90
2023-01-30T14:20:00.828Z,13.75
2023-01-30T14:22:54.593Z,15.10
2023-01-30T14:25:32.945Z,15.17
2023-01-30T14:28:00.419Z,15.23
2023-01-30T14:30:56.069Z,15.23
2023-01-30T14:33:23.787Z,15.17
2023-01-30T14:36:03.268Z,16.03
2023-01-30T14:38:36.088Z,17.30
2023-01-30T14:41:03.377Z,16.20
2023-01-30T14:43:43.035Z,16.13
2023-01-30T14:46:19.643Z,15.73
2023-01-30T14:49:19.530Z,16.13
2023-01-30T14:51:49.806Z,16.67
2023-01-30T14:54:17.319Z,16.43
2023-01-30T14:56:57.205Z,17.33
2023-01-30T14:59:54.082Z,16.67
2023-01-30T15:02:49.491Z,18.03
2023-01-30T15:05:30.795Z,17.13
2023-01-30T15:08:12.960Z,18.00
2023-01-30T15:10:49.418Z,18.00
2023-01-30T15:13:58.964Z,17.50
2023-01-30T15:17:03.051Z,18.17
2023-01-30T15:20:02.698Z,17.30
2023-01-30T15:23:18.569Z,17.67
2023-01-30T15:25:57.346Z,18.67
2023-01-30T15:29:06.509Z,18.13
2023-01-30T15:31:33.982Z,18.80
2023-01-30T15:34:01.717Z,18.73
2023-01-30T15:36:35.981Z,17.60
2023-01-30T15:39:40.358Z,16.27
2023-01-30T15:42:15.314Z,17.27
2023-01-30T15:45:33.331Z,18.27
2023-01-30T15:48:31.556Z,17.80
2023-01-30T15:51:01.461Z,19.67
2023-01-30T15:53:41.363Z,20.60
2023-01-30T15:56:17.781Z,19.07
2023-01-30T15:58:45.995Z,20.03
2023-01-30T16:01:21.365Z,20.60
2023-01-30T16:03:50.281Z,21.33
2023-01-30T16:06:23.853Z,23.10
2023-01-30T16:09:00.807Z,21.33
2023-01-30T16:11:42.772Z,21.70
2023-01-30T16:14:22.208Z,22.50
2023-01-30T16:17:10.503Z,23.27
2023-01-30T16:19:39.109Z,22.37
2023-01-30T16:22:19.152Z,21.77
2023-01-30T16:24:53.226Z,20.30
2023-01-30T16:27:32.253Z,22.03
2023-01-30T16:30:08.686Z,21.10
2023-01-30T16:32:37.521Z,21.17
2023-01-30T16:35:27.099Z,20.47
2023-01-30T16:37:59.152Z,22.33
2023-01-30T16:40:45.553Z,20.20
2023-01-30T16:43:25.003Z,21.20
2023-01-30T16:45:55.245Z,21.07
2023-01-30T16:48:43.974Z,20.43
2023-01-30T16:51:21.764Z,20.83
2023-01-30T16:54:04.860Z,19.87
2023-01-30T16:56:34.975Z,19.23
2023-01-30T16:59:03.656Z,18.17
2023-01-30T17:01:41.466Z,19.50
2023-01-30T17:04:22.958Z,19.03
2023-01-30T17:07:01.699Z,18.20
2023-01-30T17:09:42.731Z,18.10
2023-01-30T17:12:31.240Z,20.73
2023-01-30T17:15:13.893Z,18.33
2023-01-30T17:17:42.575Z,19.07
2023-01-30T17:20:13.180Z,19.43
2023-01-30T17:22:44.604Z,18.60
2023-01-30T17:25:33.005Z,19.43
2023-01-30T17:28:00.396Z,19.53
2023-01-30T17:30:28.021Z,19.33
2023-01-30T17:32:55.329Z,19.27
2023-01-30T17:35:23.048Z,19.90
2023-01-30T17:37:59.750Z,21.00
2023-01-30T17:40:36.872Z,20.40
2023-01-30T17:43:05.580Z,21.40
2023-01-30T17:45:33.747Z,22.43
2023-01-30T17:48:01.803Z,19.67
2023-01-30T17:50:29.505Z,19.90
2023-01-30T17:52:56.883Z,20.43
2023-01-30T17:55:25.123Z,19.97
2023-01-30T17:57:53.157Z,19.90
2023-01-30T18:00:22.902Z,21.10
2023-01-30T18:02:50.447Z,21.57
2023-01-30T18:05:18.231Z,21.90
2023-01-30T18:07:45.708Z,21.43
2023-01-30T18:10:20.460Z,20.07
2023-01-30T18:12:48.013Z,23.00
2023-01-30T18:15:16.658Z,20.80
2023-01-30T18:17:48.540Z,21.43
2023-01-30T18:20:20.275Z,18.83
2023-01-30T18:22:48.091Z,19.90
2023-01-30T18:25:17.649Z,18.17
2023-01-30T18:27:47.410Z,17.60
2023-01-30T18:30:17.686Z,17.57
2023-01-30T18:32:53.562Z,16.83
2023-01-30T18:35:23.200Z,17.03
2023-01-30T18:37:51.109Z,16.50
2023-01-30T18:40:20.876Z,16.73
2023-01-30T18:42:48.706Z,17.90
2023-01-30T18:45:16.582Z,17.10
2023-01-30T18:47:44.008Z,18.53
2023-01-30T18:50:12.277Z,17.23
2023-01-30T18:52:39.697Z,17.17
2023-01-30T18:55:07.903Z,16.60
2023-01-30T18:57:35.230Z,16.93
2023-01-30T19:00:03.348Z,18.40
2023-01-30T19:02:30.910Z,16.97
2023-01-30T19:04:58.572Z,17.30
2023-01-30T19:07:25.881Z,17.03
2023-01-30T19:09:53.666Z,17.57
2023-01-30T19:12:41.382Z,17.23
2023-01-30T19:15:10.249Z,17.70
2023-01-30T19:17:37.543Z,17.83
2023-01-30T19:20:10.863Z,17.73
2023-01-30T19:22:39.270Z,17.23
2023-01-30T19:25:07.842Z,16.57
2023-01-30T19:27:38.508Z,16.47
2023-01-30T19:30:07.424Z,16.43
2023-01-30T19:32:35.039Z,17.23
2023-01-30T19:35:02.965Z,17.50
2023-01-30T19:37:30.407Z,16.07
2023-01-30T19:39:58.039Z,17.17
2023-01-30T19:42:25.444Z,17.50
2023-01-30T19:44:53.255Z,16.53
2023-01-30T19:47:22.130Z,17.10
2023-01-30T19:49:49.914Z,16.07
2023-01-30T19:52:17.190Z,16.87
2023-01-30T19:54:47.039Z,17.23
2023-01-30T19:57:14.406Z,18.13
2023-01-30T19:59:42.839Z,17.47
2023-01-30T20:02:13.305Z,17.23
2023-01-30T20:04:41.058Z,17.00
2023-01-30T20:07:08.417Z,16.13
2023-01-30T20:09:36.139Z,16.50
2023-01-30T20:12:03.840Z,13.97
2023-01-30T20:14:31.549Z,11.07
2023-01-30T20:16:58.895Z,10.53
2023-01-30T20:19:27.289Z,11.37
2023-01-30T20:21:55.184Z,10.50
2023-01-30T20:24:23.002Z,7.70
2023-01-30T20:26:50.513Z,8.57
2023-01-30T20:29:18.256Z,10.07
2023-01-30T20:31:45.689Z,8.77
2023-01-30T20:34:15.265Z,7.37
2023-01-30T20:36:42.805Z,7.63
2023-01-30T20:39:10.639Z,6.57
2023-01-30T20:41:38.766Z,7.63
2023-01-30T20:44:10.531Z,7.70
2023-01-30T20:46:44.195Z,7.10
2023-01-30T20:49:29.929Z,9.47
2023-01-30T20:51:57.195Z,7.77
2023-01-30T20:54:24.778Z,7.90
2023-01-30T20:56:53.990Z,7.87
2023-01-30T20:59:24.490Z,7.93
2023-01-30T21:01:53.275Z,8.57
2023-01-30T21:04:24.574Z,7.50
2023-01-30T21:06:52.240Z,8.13
2023-01-30T21:09:23.146Z,9.97
2023-01-30T21:11:53.113Z,8.40
2023-01-30T21:14:21.584Z,8.57
2023-01-30T21:16:49.448Z,7.70
2023-01-30T21:19:18.239Z,8.57
2023-01-30T21:21:53.498Z,9.00
2023-01-30T21:24:28.567Z,7.83
2023-01-30T21:26:56.967Z,7.83
2023-01-30T21:29:28.417Z,9.00
2023-01-30T21:31:57.818Z,7.77
2023-01-30T21:34:25.864Z,8.23
2023-01-30T21:37:11.798Z,7.83
2023-01-30T21:39:58.206Z,8.57
2023-01-30T21:42:44.055Z,8.43
2023-01-30T21:45:11.712Z,8.97
2023-01-30T21:47:39.028Z,9.37
2023-01-30T21:50:07.588Z,9.23
2023-01-30T21:52:35.142Z,9.43
2023-01-30T21:55:02.904Z,8.60
2023-01-30T21:57:30.338Z,6.67
2023-01-30T21:59:58.066Z,7.47
2023-01-30T22:02:25.516Z,7.00
2023-01-30T22:04:53.225Z,6.70
2023-01-30T22:07:20.596Z,7.70
2023-01-30T22:09:48.993Z,7.90
2023-01-30T22:12:16.495Z,8.83
2023-01-30T22:14:44.074Z,7.47
2023-01-30T22:17:11.468Z,6.97
2023-01-30T22:19:39.703Z,5.63
2023-01-30T22:22:07.143Z,6.50
2023-01-30T22:24:34.817Z,5.70
2023-01-30T22:27:02.203Z,6.57
2023-01-30T22:29:29.903Z,6.43
2023-01-30T22:31:57.334Z,6.17
2023-01-30T22:34:25.053Z,5.13
2023-01-30T22:36:53.059Z,5.30
2023-01-30T22:39:20.765Z,6.47
2023-01-30T22:41:48.142Z,6.67
2023-01-30T22:44:15.737Z,6.00
2023-01-30T22:46:43.061Z,8.57
2023-01-30T22:49:10.959Z,8.07
2023-01-30T22:51:41.211Z,9.80
2023-01-30T22:54:16.073Z,9.57
2023-01-30T22:56:47.630Z,10.27
2023-01-30T22:59:15.343Z,10.67
2023-01-30T23:01:46.864Z,11.60
2023-01-30T23:04:19.278Z,11.47
2023-01-30T23:06:47.753Z,11.90
2023-01-30T23:09:20.040Z,11.13
2023-01-30T23:12:10.807Z,12.97
2023-01-30T23:14:39.292Z,14.33
2023-01-30T23:17:26.782Z,13.17
2023-01-30T23:19:57.767Z,14.13
2023-01-30T23:22:25.223Z,14.50
2023-01-30T23:24:52.828Z,12.27
2023-01-30T23:27:21.183Z,10.27
2023-01-30T23:29:48.925Z,9.00
2023-01-30T23:32:19.942Z,10.47
2023-01-30T23:34:48.273Z,9.73
2023-01-30T23:37:16.650Z,11.50
2023-01-30T23:39:44.985Z,10.20
2023-01-30T23:42:12.244Z,9.73
2023-01-30T23:44:40.128Z,9.37
2023-01-30T23:47:07.604Z,9.53
2023-01-30T23:49:35.400Z,10.47
2023-01-30T23:52:02.709Z,10.27
2023-01-30T23:54:30.337Z,10.57
2023-01-30T23:56:57.664Z,10.63
2023-01-30T23:59:25.235Z,9.47
